createdAt,value
2023-04-16T00:00:06.341Z,6.4837
2023-04-16T00:01:07.351Z,6.5115
2023-04-16T00:02:08.507Z,6.6559
2023-04-16T00:03:09.569Z,6.5528
2023-04-16T00:04:10.597Z,6.5234
2023-04-16T00:05:11.525Z,6.5166
2023-04-16T00:06:12.511Z,6.5137
2023-04-16T00:07:13.566Z,6.4835
2023-04-16T00:08:14.645Z,6.5059
2023-04-16T00:09:15.645Z,6.6501
2023-04-16T00:10:16.729Z,6.5692
2023-04-16T00:11:17.779Z,6.5300
2023-04-16T00:12:18.764Z,6.5176
2023-04-16T00:13:19.801Z,6.5104
2023-04-16T00:14:20.847Z,6.5178
2023-04-16T00:15:22.010Z,6.5129
2023-04-16T00:16:23.032Z,6.5503
2023-04-16T00:17:24.046Z,6.6333
2023-04-16T00:18:25.050Z,6.6082
2023-04-16T00:19:26.100Z,6.5265
2023-04-16T00:20:27.143Z,6.4977
2023-04-16T00:21:28.191Z,6.4913
2023-04-16T00:22:29.210Z,6.4989
2023-04-16T00:23:30.222Z,6.5022
2023-04-16T00:24:31.268Z,6.4965
2023-04-16T00:25:32.352Z,6.4792
2023-04-16T00:26:33.346Z,6.5275
2023-04-16T00:27:34.400Z,6.5240
2023-04-16T00:28:35.402Z,6.5092
2023-04-16T00:29:36.404Z,6.5390
2023-04-16T00:30:37.471Z,6.4956
2023-04-16T00:31:38.451Z,6.5115
2023-04-16T00:32:39.540Z,6.5597
2023-04-16T00:33:40.512Z,6.5347
2023-04-16T00:34:41.665Z,6.5201
2023-04-16T00:35:42.645Z,6.5059
2023-04-16T00:36:43.648Z,6.4747
2023-04-16T00:37:44.694Z,6.4673
2023-04-16T00:38:45.681Z,6.4550
2023-04-16T00:39:46.787Z,6.4564
2023-04-16T00:40:47.800Z,6.4650
2023-04-16T00:41:48.805Z,6.4591
2023-04-16T00:42:49.833Z,6.4652
2023-04-16T00:43:50.886Z,6.4472
2023-04-16T00:44:51.925Z,6.4681
2023-04-16T00:45:53.072Z,6.4542
2023-04-16T00:46:54.016Z,6.4652
2023-04-16T00:47:55.142Z,6.4724
2023-04-16T00:48:56.060Z,6.4652
2023-04-16T00:49:57.125Z,6.4741
2023-04-16T00:50:58.183Z,6.4585
2023-04-16T00:51:59.224Z,6.4638
2023-04-16T00:53:00.235Z,6.4404
2023-04-16T00:54:01.266Z,6.4880
2023-04-16T00:55:02.306Z,6.5016
2023-04-16T00:56:03.380Z,6.4954
2023-04-16T00:57:04.384Z,6.4307
2023-04-16T00:58:05.390Z,6.4221
2023-04-16T00:59:06.426Z,6.4587
2023-04-16T01:00:07.462Z,6.4404
2023-04-16T01:01:08.709Z,6.5069
2023-04-16T01:02:09.646Z,6.5037
2023-04-16T01:03:10.756Z,6.5396
2023-04-16T01:04:11.846Z,6.5022
2023-04-16T01:05:12.728Z,6.5148
2023-04-16T01:06:13.762Z,6.5074
2023-04-16T01:07:14.764Z,6.4488
2023-04-16T01:08:15.825Z,6.4718
2023-04-16T01:09:16.861Z,6.4455
2023-04-16T01:10:17.934Z,6.4634
2023-04-16T01:11:18.999Z,6.4696
2023-04-16T01:12:19.985Z,6.4542
2023-04-16T01:13:21.009Z,6.5162
2023-04-16T01:14:22.047Z,6.5772
2023-04-16T01:15:23.104Z,6.6345
2023-04-16T01:16:24.288Z,6.6253
2023-04-16T01:17:25.174Z,6.5499
2023-04-16T01:18:26.264Z,6.6665
2023-04-16T01:19:27.265Z,6.6023
2023-04-16T01:20:28.287Z,6.5511
2023-04-16T01:21:29.328Z,6.5702
2023-04-16T01:22:30.351Z,6.4856
2023-04-16T01:23:31.385Z,6.5735
2023-04-16T01:24:32.975Z,6.5731
2023-04-16T01:25:33.386Z,6.5439
2023-04-16T01:26:34.405Z,6.5318
2023-04-16T01:27:35.437Z,6.4899
2023-04-16T01:28:36.489Z,6.5443
2023-04-16T01:29:37.508Z,6.5193
2023-04-16T01:30:38.529Z,6.5061
2023-04-16T01:31:39.656Z,6.4472
2023-04-16T01:32:40.630Z,6.4422
2023-04-16T01:33:41.633Z,6.4449
2023-04-16T01:34:42.688Z,6.4316
2023-04-16T01:35:43.725Z,6.4952
2023-04-16T01:36:44.793Z,6.4692
2023-04-16T01:37:45.809Z,6.4330
2023-04-16T01:38:46.846Z,6.4244
2023-04-16T01:39:47.876Z,6.4038
2023-04-16T01:40:48.920Z,6.3816
2023-04-16T01:41:49.967Z,6.3644
2023-04-16T01:42:50.980Z,6.4034
2023-04-16T01:43:51.987Z,6.4480
2023-04-16T01:44:53.008Z,6.4848
2023-04-16T01:45:54.060Z,6.4696
2023-04-16T01:46:55.153Z,6.4587
2023-04-16T01:47:56.149Z,6.4164
2023-04-16T01:48:57.181Z,6.4133
2023-04-16T01:49:58.276Z,6.4665
2023-04-16T01:50:59.234Z,6.5090
2023-04-16T01:52:00.298Z,6.4470
2023-04-16T01:53:01.328Z,6.3993
2023-04-16T01:54:02.347Z,6.3562
2023-04-16T01:55:03.383Z,6.3638
2023-04-16T01:56:04.425Z,6.3915
2023-04-16T01:57:05.520Z,6.4229
2023-04-16T01:58:06.605Z,6.4110
2023-04-16T01:59:08.044Z,6.3892
2023-04-16T02:00:08.641Z,6.4726
2023-04-16T02:01:09.750Z,6.4887
2023-04-16T02:02:10.758Z,6.4383
2023-04-16T02:03:11.935Z,6.4174
2023-04-16T02:04:12.822Z,6.3882
2023-04-16T02:05:13.811Z,6.3823
2023-04-16T02:06:14.851Z,6.3664
2023-04-16T02:07:15.896Z,6.4108
2023-04-16T02:08:17.063Z,6.4176
2023-04-16T02:09:17.958Z,6.3849
2023-04-16T02:10:19.005Z,6.4459
2023-04-16T02:11:20.024Z,6.5150
2023-04-16T02:12:21.006Z,6.4433
2023-04-16T02:13:22.040Z,6.4320
2023-04-16T02:14:23.052Z,6.4151
2023-04-16T02:15:24.075Z,6.4108
2023-04-16T02:16:25.153Z,6.4075
2023-04-16T02:17:26.172Z,6.3979
2023-04-16T02:18:27.206Z,6.4073
2023-04-16T02:19:28.202Z,6.4042
2023-04-16T02:20:29.263Z,6.4457
2023-04-16T02:21:30.281Z,6.4398
2023-04-16T02:22:31.323Z,6.4392
2023-04-16T02:23:32.384Z,6.3966
2023-04-16T02:24:33.379Z,6.4049
2023-04-16T02:25:34.423Z,6.3360
2023-04-16T02:26:35.441Z,6.3478
2023-04-16T02:27:36.484Z,6.3342
2023-04-16T02:28:37.561Z,6.3630
2023-04-16T02:29:38.528Z,6.3570
2023-04-16T02:30:39.609Z,6.3543
2023-04-16T02:31:40.680Z,6.3796
2023-04-16T02:32:41.713Z,6.3814
2023-04-16T02:33:42.719Z,6.4745
2023-04-16T02:34:43.739Z,6.4620
2023-04-16T02:35:44.782Z,6.5018
2023-04-16T02:36:45.785Z,6.3968
2023-04-16T02:37:46.855Z,6.3761
2023-04-16T02:38:47.928Z,6.4044
2023-04-16T02:39:48.923Z,6.4470
2023-04-16T02:40:49.947Z,6.4081
2023-04-16T02:41:51.008Z,6.3607
2023-04-16T02:42:52.029Z,6.3728
2023-04-16T02:43:53.101Z,6.3658
2023-04-16T02:44:54.100Z,6.3728
2023-04-16T02:45:55.236Z,6.3837
2023-04-16T02:46:56.302Z,6.5258
2023-04-16T02:47:57.397Z,6.4227
2023-04-16T02:48:58.367Z,6.3858
2023-04-16T02:49:59.350Z,6.3759
2023-04-16T02:51:00.394Z,6.3648
2023-04-16T02:52:01.449Z,6.3535
2023-04-16T02:53:02.464Z,6.3749
2023-04-16T02:54:03.574Z,6.3613
2023-04-16T02:55:04.623Z,6.3459
2023-04-16T02:56:05.593Z,6.3445
2023-04-16T02:57:06.646Z,6.3603
2023-04-16T02:58:07.657Z,6.3687
2023-04-16T02:59:08.937Z,6.3519
2023-04-16T03:00:09.769Z,6.3338
2023-04-16T03:01:10.850Z,6.3541
2023-04-16T03:02:11.885Z,6.3395
2023-04-16T03:03:12.945Z,6.3342
2023-04-16T03:04:13.945Z,6.3728
2023-04-16T03:05:14.933Z,6.3194
2023-04-16T03:06:16.031Z,6.3093
2023-04-16T03:07:17.069Z,6.3519
2023-04-16T03:08:18.051Z,6.3233
2023-04-16T03:09:19.091Z,6.3048
2023-04-16T03:10:20.134Z,6.3632
2023-04-16T03:11:21.191Z,6.3804
2023-04-16T03:12:22.174Z,6.2878
2023-04-16T03:13:23.234Z,6.2814
2023-04-16T03:14:24.311Z,6.2822
2023-04-16T03:15:25.323Z,6.2683
2023-04-16T03:16:26.353Z,6.2746
2023-04-16T03:17:27.429Z,6.2434
2023-04-16T03:18:28.396Z,6.2568
2023-04-16T03:19:29.475Z,6.2672
2023-04-16T03:20:30.492Z,6.2510
2023-04-16T03:21:31.552Z,6.2746
2023-04-16T03:22:32.582Z,6.2592
2023-04-16T03:23:33.625Z,6.2611
2023-04-16T03:24:34.689Z,6.3243
2023-04-16T03:25:35.730Z,6.3026
2023-04-16T03:26:36.722Z,6.2898
2023-04-16T03:27:37.774Z,6.2913
2023-04-16T03:28:38.818Z,6.2270
2023-04-16T03:29:39.883Z,6.2241
2023-04-16T03:30:40.902Z,6.2358
2023-04-16T03:31:41.989Z,6.2541
2023-04-16T03:32:43.063Z,6.2767
2023-04-16T03:33:43.998Z,6.2208
2023-04-16T03:34:45.089Z,6.2820
2023-04-16T03:35:46.125Z,6.2674
2023-04-16T03:36:47.298Z,6.2732
2023-04-16T03:37:48.156Z,6.2414
2023-04-16T03:38:49.206Z,6.2436
2023-04-16T03:39:50.310Z,6.1892
2023-04-16T03:40:51.304Z,6.2003
2023-04-16T03:41:52.382Z,6.2327
2023-04-16T03:42:53.436Z,6.2350
2023-04-16T03:43:54.623Z,6.2855
2023-04-16T03:44:55.502Z,6.2715
2023-04-16T03:45:56.577Z,6.3611
2023-04-16T03:46:57.659Z,6.2900
2023-04-16T03:47:58.656Z,6.2089
2023-04-16T03:48:59.694Z,6.1916
2023-04-16T03:50:00.732Z,6.2036
2023-04-16T03:51:01.812Z,6.2023
2023-04-16T03:52:02.852Z,6.2274
2023-04-16T03:53:03.831Z,6.1746
2023-04-16T03:54:04.883Z,6.1532
2023-04-16T03:55:05.831Z,6.1658
2023-04-16T03:56:06.900Z,6.1931
2023-04-16T03:57:07.895Z,6.2251
2023-04-16T03:58:08.952Z,6.1863
2023-04-16T03:59:10.139Z,6.1715
2023-04-16T04:00:11.038Z,6.1582
2023-04-16T04:01:12.082Z,6.1695
2023-04-16T04:02:13.263Z,6.3397
2023-04-16T04:03:14.310Z,6.2970
2023-04-16T04:04:15.234Z,6.2391
2023-04-16T04:05:16.217Z,6.2056
2023-04-16T04:06:17.294Z,6.2167
2023-04-16T04:07:18.311Z,6.1875
2023-04-16T04:08:19.313Z,6.1627
2023-04-16T04:09:20.396Z,6.1799
2023-04-16T04:10:21.410Z,6.2561
2023-04-16T04:11:22.478Z,6.1937
2023-04-16T04:12:23.481Z,6.2520
2023-04-16T04:13:24.526Z,6.2003
2023-04-16T04:14:25.556Z,6.1853
2023-04-16T04:15:26.616Z,6.1955
2023-04-16T04:16:27.699Z,6.1787
2023-04-16T04:17:28.667Z,6.1594
2023-04-16T04:18:29.713Z,6.1779
2023-04-16T04:19:30.777Z,6.1766
2023-04-16T04:20:31.807Z,6.1762
2023-04-16T04:21:32.896Z,6.1766
2023-04-16T04:22:33.877Z,6.1990
2023-04-16T04:23:34.924Z,6.2031
2023-04-16T04:24:35.971Z,6.1990
2023-04-16T04:25:37.002Z,6.2046
2023-04-16T04:26:38.183Z,6.1785
2023-04-16T04:27:39.060Z,6.2335
2023-04-16T04:28:40.175Z,6.2545
2023-04-16T04:29:41.204Z,6.2208
2023-04-16T04:30:42.382Z,6.2025
2023-04-16T04:31:43.515Z,6.2081
2023-04-16T04:32:44.371Z,6.1896
2023-04-16T04:33:45.365Z,6.1916
2023-04-16T04:34:46.415Z,6.2070
2023-04-16T04:35:47.544Z,6.1890
2023-04-16T04:36:48.522Z,6.2025
2023-04-16T04:37:49.557Z,6.2294
2023-04-16T04:38:50.566Z,6.2210
2023-04-16T04:39:51.609Z,6.1918
2023-04-16T04:40:52.690Z,6.2165
2023-04-16T04:41:53.703Z,6.2381
2023-04-16T04:42:54.733Z,6.1777
2023-04-16T04:43:55.791Z,6.1810
2023-04-16T04:44:56.822Z,6.2175
2023-04-16T04:45:57.881Z,6.2200
2023-04-16T04:46:58.923Z,6.2097
2023-04-16T04:47:59.951Z,6.1916
2023-04-16T04:49:00.966Z,6.1734
2023-04-16T04:50:01.988Z,6.1892
2023-04-16T04:51:05.032Z,6.2122
2023-04-16T04:52:04.063Z,6.2025
2023-04-16T04:53:05.042Z,6.1980
2023-04-16T04:54:06.105Z,6.2284
2023-04-16T04:55:07.162Z,6.2112
2023-04-16T04:56:12.796Z,6.2290
2023-04-16T04:57:09.286Z,6.2561
2023-04-16T04:58:10.269Z,6.2239
2023-04-16T04:59:11.450Z,6.2122
2023-04-16T05:00:12.326Z,6.2046
2023-04-16T05:01:13.367Z,6.2800
2023-04-16T05:02:14.532Z,6.2424
2023-04-16T05:03:15.489Z,6.2220
2023-04-16T05:04:16.598Z,6.2025
2023-04-16T05:05:17.586Z,6.2087
2023-04-16T05:06:18.567Z,6.2333
2023-04-16T05:07:19.589Z,6.1949
2023-04-16T05:08:20.639Z,6.2142
2023-04-16T05:09:21.663Z,6.2208
2023-04-16T05:10:22.693Z,6.2327
2023-04-16T05:11:23.716Z,6.2286
2023-04-16T05:12:24.775Z,6.2693
2023-04-16T05:13:25.811Z,6.2693
2023-04-16T05:14:26.852Z,6.2757
2023-04-16T05:15:27.896Z,6.2701
2023-04-16T05:16:28.978Z,6.2220
2023-04-16T05:17:30.038Z,6.2050
2023-04-16T05:18:30.972Z,6.2492
2023-04-16T05:19:32.070Z,6.2812
2023-04-16T05:20:33.068Z,6.2718
2023-04-16T05:21:34.106Z,6.2728
2023-04-16T05:22:35.178Z,6.2572
2023-04-16T05:23:36.221Z,6.2701
2023-04-16T05:24:37.277Z,6.3319
2023-04-16T05:25:38.333Z,6.3030
2023-04-16T05:26:39.369Z,6.2362
2023-04-16T05:27:40.478Z,6.2356
2023-04-16T05:28:41.459Z,6.2354
2023-04-16T05:29:42.492Z,6.2715
2023-04-16T05:30:43.588Z,6.3178
2023-04-16T05:31:44.574Z,6.2927
2023-04-16T05:32:45.683Z,6.2553
2023-04-16T05:33:46.658Z,6.2487
2023-04-16T05:34:47.719Z,6.2506
2023-04-16T05:35:48.675Z,6.2791
2023-04-16T05:36:49.690Z,6.3159
2023-04-16T05:37:50.793Z,6.3730
2023-04-16T05:38:51.828Z,6.3362
2023-04-16T05:39:52.932Z,6.2833
2023-04-16T05:40:53.855Z,6.2584
2023-04-16T05:41:54.902Z,6.3247
2023-04-16T05:42:56.013Z,6.3245
2023-04-16T05:43:56.984Z,6.3210
2023-04-16T05:44:58.027Z,6.3087
2023-04-16T05:45:59.108Z,6.2598
2023-04-16T05:47:00.094Z,6.2393
2023-04-16T05:48:01.196Z,6.2190
2023-04-16T05:49:02.189Z,6.2985
2023-04-16T05:50:03.190Z,6.3295
2023-04-16T05:51:04.306Z,6.2960
2023-04-16T05:52:05.275Z,6.3566
2023-04-16T05:53:06.292Z,6.3067
2023-04-16T05:54:07.365Z,6.2943
2023-04-16T05:55:08.349Z,6.2541
2023-04-16T05:56:09.390Z,6.2469
2023-04-16T05:57:10.433Z,6.1918
2023-04-16T05:58:11.470Z,6.2446
2023-04-16T05:59:12.555Z,6.2810
2023-04-16T06:00:13.526Z,6.3233
2023-04-16T06:01:14.600Z,6.3297
2023-04-16T06:02:15.710Z,6.2789
2023-04-16T06:03:16.828Z,6.2313
2023-04-16T06:04:17.875Z,6.2395
2023-04-16T06:05:18.738Z,6.2551
2023-04-16T06:06:19.783Z,6.2769
2023-04-16T06:07:20.836Z,6.2865
2023-04-16T06:08:21.849Z,6.3167
2023-04-16T06:09:23.024Z,6.3213
2023-04-16T06:10:23.939Z,6.2650
2023-04-16T06:11:24.993Z,6.3307
2023-04-16T06:12:26.025Z,6.3336
2023-04-16T06:13:27.080Z,6.3169
2023-04-16T06:14:28.168Z,6.3155
2023-04-16T06:15:29.132Z,6.3570
2023-04-16T06:16:30.259Z,6.3482
2023-04-16T06:17:31.265Z,6.3241
2023-04-16T06:18:32.294Z,6.3416
2023-04-16T06:19:33.344Z,6.3679
2023-04-16T06:20:34.351Z,6.3321
2023-04-16T06:21:35.380Z,6.3738
2023-04-16T06:22:36.417Z,6.3673
2023-04-16T06:23:37.486Z,6.4098
2023-04-16T06:24:38.558Z,6.3535
2023-04-16T06:25:39.554Z,6.4172
2023-04-16T06:26:40.576Z,6.4001
2023-04-16T06:27:41.615Z,6.3619
2023-04-16T06:28:42.648Z,6.4016
2023-04-16T06:29:43.750Z,6.4190
2023-04-16T06:30:44.861Z,6.4036
2023-04-16T06:31:45.813Z,6.4459
2023-04-16T06:32:46.862Z,6.4379
2023-04-16T06:33:47.856Z,6.4509
2023-04-16T06:34:49.161Z,6.4965
2023-04-16T06:35:49.928Z,6.5037
2023-04-16T06:36:50.968Z,6.5289
2023-04-16T06:37:52.004Z,6.5515
2023-04-16T06:38:53.050Z,6.5353
2023-04-16T06:39:54.131Z,6.5115
2023-04-16T06:40:55.116Z,6.5267
2023-04-16T06:41:56.185Z,6.6066
2023-04-16T06:42:57.216Z,6.5421
2023-04-16T06:43:58.231Z,6.5482
2023-04-16T06:44:59.292Z,6.6035
2023-04-16T06:46:00.303Z,6.5550
2023-04-16T06:47:01.407Z,6.5807
2023-04-16T06:48:02.433Z,6.5345
2023-04-16T06:49:03.435Z,6.4804
2023-04-16T06:50:04.564Z,6.4661
2023-04-16T06:51:05.509Z,6.5069
2023-04-16T06:52:06.546Z,6.5269
2023-04-16T06:53:07.559Z,6.5232
2023-04-16T06:54:08.619Z,6.4922
2023-04-16T06:55:09.704Z,6.4472
2023-04-16T06:56:10.709Z,6.4739
2023-04-16T06:57:11.714Z,6.4737
2023-04-16T06:58:12.780Z,6.5078
2023-04-16T06:59:13.755Z,6.4872
2023-04-16T07:00:14.855Z,6.5267
2023-04-16T07:01:15.905Z,6.5072
2023-04-16T07:02:17.022Z,6.5538
2023-04-16T07:03:18.017Z,6.5505
2023-04-16T07:04:19.013Z,6.5661
2023-04-16T07:05:20.184Z,6.5248
2023-04-16T07:06:21.160Z,6.5873
2023-04-16T07:07:22.322Z,6.6084
2023-04-16T07:08:23.193Z,6.6041
2023-04-16T07:09:24.259Z,6.5671
2023-04-16T07:10:25.582Z,6.5443
2023-04-16T07:11:26.306Z,6.5417
2023-04-16T07:12:27.366Z,6.5388
2023-04-16T07:13:28.590Z,6.6310
2023-04-16T07:14:29.440Z,6.5733
2023-04-16T07:15:30.526Z,6.4922
2023-04-16T07:16:31.596Z,6.4934
2023-04-16T07:17:32.594Z,6.5308
2023-04-16T07:18:33.586Z,6.5624
2023-04-16T07:19:34.603Z,6.5332
2023-04-16T07:20:35.671Z,6.4772
2023-04-16T07:21:36.745Z,6.3907
2023-04-16T07:22:37.729Z,6.3837
2023-04-16T07:23:38.745Z,6.4402
2023-04-16T07:24:39.788Z,6.4314
2023-04-16T07:25:41.160Z,6.4088
2023-04-16T07:26:41.876Z,6.4544
2023-04-16T07:27:42.923Z,6.4166
2023-04-16T07:28:43.955Z,6.3681
2023-04-16T07:29:44.984Z,6.3708
2023-04-16T07:30:46.048Z,6.4219
2023-04-16T07:31:47.151Z,6.4940
2023-04-16T07:32:48.162Z,6.4244
2023-04-16T07:33:49.148Z,6.4757
2023-04-16T07:34:50.235Z,6.4924
2023-04-16T07:35:51.240Z,6.4416
2023-04-16T07:36:52.309Z,6.4042
2023-04-16T07:37:53.310Z,6.4110
2023-04-16T07:38:54.386Z,6.4751
2023-04-16T07:39:57.375Z,6.4630
2023-04-16T07:40:56.411Z,6.4618
2023-04-16T07:41:57.524Z,6.4414
2023-04-16T07:42:58.494Z,6.4279
2023-04-16T07:43:59.558Z,6.3677
2023-04-16T07:45:00.585Z,6.4190
2023-04-16T07:46:01.655Z,6.3923
2023-04-16T07:47:05.246Z,6.4876
2023-04-16T07:48:03.718Z,6.5591
2023-04-16T07:49:04.751Z,6.4519
2023-04-16T07:50:05.767Z,6.4500
2023-04-16T07:51:06.812Z,6.4940
2023-04-16T07:52:07.866Z,6.4184
2023-04-16T07:53:08.869Z,6.4381
2023-04-16T07:54:09.882Z,6.4470
2023-04-16T07:55:10.909Z,6.4650
2023-04-16T07:56:11.940Z,6.4359
2023-04-16T07:57:13.053Z,6.3759
2023-04-16T07:58:14.027Z,6.4272
2023-04-16T07:59:22.728Z,6.3588
2023-04-16T08:00:16.122Z,6.3784
2023-04-16T08:01:17.145Z,6.3512
2023-04-16T08:02:18.284Z,6.3839
2023-04-16T08:03:19.428Z,6.4262
2023-04-16T08:04:20.434Z,6.4556
2023-04-16T08:05:21.372Z,6.3903
2023-04-16T08:06:22.316Z,6.4168
2023-04-16T08:07:23.419Z,6.4511
2023-04-16T08:08:24.398Z,6.3991
2023-04-16T08:09:25.449Z,6.4242
2023-04-16T08:10:26.480Z,6.4468
2023-04-16T08:11:27.544Z,6.4718
2023-04-16T08:12:28.650Z,6.4973
2023-04-16T08:13:30.851Z,6.5579
2023-04-16T08:14:30.678Z,6.5969
2023-04-16T08:15:31.736Z,6.5176
2023-04-16T08:16:32.719Z,6.4642
2023-04-16T08:17:33.825Z,6.4576
2023-04-16T08:18:34.847Z,6.4940
2023-04-16T08:19:35.856Z,6.4511
2023-04-16T08:20:36.903Z,6.5039
2023-04-16T08:21:37.900Z,6.5028
2023-04-16T08:22:38.948Z,6.5051
2023-04-16T08:23:40.026Z,6.5427
2023-04-16T08:24:41.036Z,6.5951
2023-04-16T08:25:42.100Z,6.5862
2023-04-16T08:26:43.096Z,6.6060
2023-04-16T08:27:44.149Z,6.6427
2023-04-16T08:28:45.211Z,6.4782
2023-04-16T08:29:46.199Z,6.6070
2023-04-16T08:30:47.236Z,6.6906
2023-04-16T08:31:48.328Z,6.7241
2023-04-16T08:32:50.233Z,6.6230
2023-04-16T08:33:50.409Z,6.5784
2023-04-16T08:34:51.442Z,6.6957
2023-04-16T08:35:52.471Z,6.6986
2023-04-16T08:36:53.503Z,6.6505
2023-04-16T08:37:54.562Z,6.7608
2023-04-16T08:38:55.603Z,6.8233
2023-04-16T08:39:56.583Z,6.7904
2023-04-16T08:40:57.620Z,6.7701
2023-04-16T08:41:58.701Z,6.8200
2023-04-16T08:42:59.694Z,6.7647
2023-04-16T08:44:00.970Z,6.7863
2023-04-16T08:45:01.806Z,6.7693
2023-04-16T08:46:02.830Z,6.8861
2023-04-16T08:47:03.973Z,6.8755
2023-04-16T08:48:05.006Z,6.7171
2023-04-16T08:49:06.000Z,6.9143
2023-04-16T08:50:07.005Z,7.0646
2023-04-16T08:51:08.058Z,7.0959
2023-04-16T08:52:09.095Z,6.9934
2023-04-16T08:53:10.108Z,6.8017
2023-04-16T08:54:11.193Z,6.8689
2023-04-16T08:55:12.192Z,6.9350
2023-04-16T08:56:13.255Z,7.0320
2023-04-16T08:57:14.248Z,7.0482
2023-04-16T08:58:15.400Z,7.0390
2023-04-16T08:59:16.383Z,6.7779
2023-04-16T09:00:17.381Z,6.7816
2023-04-16T09:01:18.539Z,6.8274
2023-04-16T09:02:19.521Z,6.9252
2023-04-16T09:03:20.687Z,6.9198
2023-04-16T09:04:21.672Z,6.8761
2023-04-16T09:05:22.622Z,6.8329
2023-04-16T09:06:23.638Z,6.9414
2023-04-16T09:07:24.696Z,6.9467
2023-04-16T09:08:25.907Z,6.9406
2023-04-16T09:09:27.197Z,7.0172
2023-04-16T09:10:27.796Z,7.1113
2023-04-16T09:11:28.810Z,7.2168
2023-04-16T09:12:29.853Z,7.2970
2023-04-16T09:13:30.895Z,7.2906
2023-04-16T09:14:31.955Z,7.2125
2023-04-16T09:15:35.038Z,7.1076
2023-04-16T09:16:34.028Z,7.0644
2023-04-16T09:17:35.097Z,7.0642
2023-04-16T09:18:36.056Z,6.9895
2023-04-16T09:19:37.233Z,7.0322
2023-04-16T09:20:38.113Z,7.1221
2023-04-16T09:21:39.182Z,7.0981
2023-04-16T09:22:40.224Z,7.1053
2023-04-16T09:23:41.235Z,7.1521
2023-04-16T09:24:42.314Z,7.1663
2023-04-16T09:25:43.301Z,7.0223
2023-04-16T09:26:44.504Z,6.9402
2023-04-16T09:27:45.407Z,6.9373
2023-04-16T09:28:46.436Z,6.9254
2023-04-16T09:29:47.500Z,6.8855
2023-04-16T09:30:48.497Z,6.9155
2023-04-16T09:31:49.613Z,6.9293
2023-04-16T09:32:50.645Z,6.9609
2023-04-16T09:33:51.616Z,7.0268
2023-04-16T09:34:52.658Z,7.1610
2023-04-16T09:35:53.776Z,7.1770
2023-04-16T09:36:54.700Z,7.1735
2023-04-16T09:37:55.719Z,7.2883
2023-04-16T09:38:57.786Z,7.3119
2023-04-16T09:39:57.860Z,7.2844
2023-04-16T09:40:58.901Z,7.1856
2023-04-16T09:41:59.979Z,7.1680
2023-04-16T09:43:00.969Z,7.1945
2023-04-16T09:44:02.030Z,7.1341
2023-04-16T09:45:05.457Z,7.1242
2023-04-16T09:46:07.865Z,7.0817
2023-04-16T09:47:05.102Z,7.1361
2023-04-16T09:48:06.194Z,7.1123
2023-04-16T09:49:07.390Z,7.0533
2023-04-16T09:50:08.233Z,6.9999
2023-04-16T09:51:09.254Z,6.9328
2023-04-16T09:52:10.269Z,6.8722
2023-04-16T09:53:11.313Z,6.9619
2023-04-16T09:54:12.376Z,7.0390
2023-04-16T09:55:13.444Z,6.9823
2023-04-16T09:56:14.496Z,7.0959
2023-04-16T09:57:15.468Z,7.2043
2023-04-16T09:58:16.530Z,7.1468
2023-04-16T09:59:17.543Z,7.1000
2023-04-16T10:00:18.779Z,7.1396
2023-04-16T10:01:19.692Z,7.1045
2023-04-16T10:02:20.718Z,7.1096
2023-04-16T10:03:21.810Z,7.0406
2023-04-16T10:04:22.780Z,7.0429
2023-04-16T10:05:23.779Z,7.0591
2023-04-16T10:06:24.837Z,7.0844
2023-04-16T10:07:25.855Z,7.1858
2023-04-16T10:08:26.913Z,7.2446
2023-04-16T10:09:27.914Z,7.1762
2023-04-16T10:10:28.991Z,7.0796
2023-04-16T10:11:30.062Z,7.1519
2023-04-16T10:12:31.014Z,7.1033
2023-04-16T10:13:32.081Z,7.0944
2023-04-16T10:14:33.195Z,7.0731
2023-04-16T10:15:34.212Z,7.0800
2023-04-16T10:16:35.226Z,7.1663
2023-04-16T10:17:36.231Z,7.1986
2023-04-16T10:18:37.249Z,7.2789
2023-04-16T10:19:38.314Z,7.2536
2023-04-16T10:20:39.392Z,7.1770
2023-04-16T10:21:40.398Z,7.2452
2023-04-16T10:22:41.400Z,7.2290
2023-04-16T10:23:42.440Z,7.2442
2023-04-16T10:24:43.478Z,7.3035
2023-04-16T10:25:44.520Z,7.3393
2023-04-16T10:26:45.621Z,7.4436
2023-04-16T10:27:46.644Z,7.4175
2023-04-16T10:28:47.644Z,7.4401
2023-04-16T10:29:48.681Z,7.4512
2023-04-16T10:30:49.756Z,7.4824
2023-04-16T10:31:50.819Z,7.5184
2023-04-16T10:32:51.855Z,7.5669
2023-04-16T10:33:52.876Z,7.5636
2023-04-16T10:34:53.910Z,7.5732
2023-04-16T10:36:04.892Z,7.5868
2023-04-16T10:36:56.080Z,7.7464
2023-04-16T10:37:56.985Z,7.7094
2023-04-16T10:38:58.031Z,7.7000
2023-04-16T10:39:59.070Z,7.8327
2023-04-16T10:41:00.103Z,7.7378
2023-04-16T10:42:01.171Z,7.7883
2023-04-16T10:43:02.184Z,7.9009
2023-04-16T10:44:03.217Z,7.9555
2023-04-16T10:45:04.269Z,7.9401
2023-04-16T10:46:05.304Z,8.1239
2023-04-16T10:47:06.424Z,8.1634
2023-04-16T10:48:08.018Z,8.1870
2023-04-16T10:49:08.670Z,8.1206
2023-04-16T10:50:09.430Z,8.0761
2023-04-16T10:51:10.449Z,8.1397
2023-04-16T10:52:11.509Z,8.3111
2023-04-16T10:53:12.534Z,8.2876
2023-04-16T10:54:13.563Z,8.2831
2023-04-16T10:55:14.604Z,8.2213
2023-04-16T10:56:15.645Z,8.3191
2023-04-16T10:57:16.718Z,8.1445
2023-04-16T10:58:17.707Z,8.1190
2023-04-16T10:59:18.758Z,8.1250
2023-04-16T11:00:20.024Z,8.1773
2023-04-16T11:01:20.885Z,8.0927
2023-04-16T11:02:22.026Z,8.1876
2023-04-16T11:03:23.045Z,7.9639
2023-04-16T11:04:24.010Z,8.0481
2023-04-16T11:05:24.986Z,8.2946
2023-04-16T11:06:26.134Z,8.2716
2023-04-16T11:07:27.147Z,8.2344
2023-04-16T11:08:28.188Z,8.0245
2023-04-16T11:09:29.208Z,7.9214
2023-04-16T11:10:30.246Z,8.0631
2023-04-16T11:11:31.289Z,8.1897
2023-04-16T11:12:32.380Z,8.1032
2023-04-16T11:13:33.378Z,8.1176
2023-04-16T11:14:34.428Z,8.1449
2023-04-16T11:15:35.474Z,8.0514
2023-04-16T11:16:36.495Z,8.0481
2023-04-16T11:17:37.613Z,7.8781
2023-04-16T11:18:38.566Z,8.1586
2023-04-16T11:19:39.584Z,8.1695
2023-04-16T11:20:40.657Z,8.0005
2023-04-16T11:21:41.651Z,8.1309
2023-04-16T11:22:42.749Z,8.1734
2023-04-16T11:23:43.808Z,8.1932
2023-04-16T11:24:44.852Z,8.0525
2023-04-16T11:25:45.811Z,8.0948
2023-04-16T11:26:46.844Z,8.2433
2023-04-16T11:27:48.046Z,8.2324
2023-04-16T11:28:48.941Z,8.3337
2023-04-16T11:29:49.956Z,8.2634
2023-04-16T11:30:50.993Z,8.1459
2023-04-16T11:31:52.154Z,8.1568
2023-04-16T11:32:53.286Z,8.1876
2023-04-16T11:33:54.124Z,8.1529
2023-04-16T11:34:55.185Z,8.0506
2023-04-16T11:35:56.226Z,8.0537
2023-04-16T11:36:57.258Z,7.9265
2023-04-16T11:37:58.285Z,8.0987
2023-04-16T11:38:59.412Z,8.0352
2023-04-16T11:40:00.442Z,7.9399
2023-04-16T11:41:01.473Z,8.0126
2023-04-16T11:42:02.570Z,7.9791
2023-04-16T11:43:03.609Z,7.9376
2023-04-16T11:44:04.649Z,8.0241
2023-04-16T11:45:05.660Z,7.9101
2023-04-16T11:46:16.588Z,7.9054
2023-04-16T11:47:07.868Z,7.9594
2023-04-16T11:48:11.093Z,7.9442
2023-04-16T11:49:10.136Z,7.9393
2023-04-16T11:50:10.887Z,7.9154
2023-04-16T11:51:11.891Z,8.0284
2023-04-16T11:52:12.953Z,7.8785
2023-04-16T11:53:14.003Z,7.7897
2023-04-16T11:54:15.003Z,7.9263
2023-04-16T11:55:16.033Z,8.0186
2023-04-16T11:56:17.103Z,8.0153
2023-04-16T11:57:18.131Z,7.9937
2023-04-16T11:58:19.265Z,7.9368
2023-04-16T11:59:20.239Z,7.9929
2023-04-16T12:00:23.718Z,7.8834
2023-04-16T12:01:22.315Z,7.9150
2023-04-16T12:02:23.433Z,7.9085
2023-04-16T12:03:24.613Z,7.9333
2023-04-16T12:04:25.546Z,7.9779
2023-04-16T12:05:26.483Z,8.1022
2023-04-16T12:06:27.570Z,8.1784
2023-04-16T12:07:28.555Z,8.2710
2023-04-16T12:08:29.636Z,8.1656
2023-04-16T12:09:30.620Z,8.2548
2023-04-16T12:10:31.708Z,8.2519
2023-04-16T12:11:32.667Z,8.2903
2023-04-16T12:12:33.727Z,8.3018
2023-04-16T12:13:34.824Z,8.2020
2023-04-16T12:14:35.875Z,8.0890
2023-04-16T12:15:36.839Z,8.2238
2023-04-16T12:16:37.911Z,8.3265
2023-04-16T12:17:39.033Z,8.3306
2023-04-16T12:18:39.956Z,8.4076
2023-04-16T12:19:41.000Z,8.4791
2023-04-16T12:20:41.977Z,8.3273
2023-04-16T12:21:43.018Z,8.2303
2023-04-16T12:22:44.050Z,8.2636
2023-04-16T12:23:45.163Z,8.2012
2023-04-16T12:24:46.164Z,8.1714
2023-04-16T12:25:47.196Z,8.3349
2023-04-16T12:26:48.225Z,8.3285
2023-04-16T12:27:52.788Z,8.3534
2023-04-16T12:28:50.342Z,8.3706
2023-04-16T12:29:51.324Z,8.3349
2023-04-16T12:30:52.339Z,8.3850
2023-04-16T12:31:53.317Z,8.4538
2023-04-16T12:32:56.057Z,8.4423
2023-04-16T12:33:55.434Z,8.3460
2023-04-16T12:34:56.435Z,8.4497
2023-04-16T12:35:57.494Z,8.2318
2023-04-16T12:36:58.529Z,8.3581
2023-04-16T12:37:59.529Z,8.3602
2023-04-16T12:39:00.640Z,8.4010
2023-04-16T12:40:01.640Z,8.4700
2023-04-16T12:41:02.857Z,8.3273